PWSweather.com
Personal Weather Stations
Station Observations
LOBIOS
Galicia, LobiosES

GaliciaLobiosES

Lat: 41.895, Lon: -8.091667

Elevation: 1597

Station Type: Automática/Davis Vantage Pro2 Plus

www.meteolobios.es

High Low Average
Temperature 53.7°F12.1°C 42.7°F5.9°C 48.6°F9.2°C
Dew Point 48.1°F8.9°C 40.0°F4.4°C 44.8°F7.1°C
Winds 5.8 mph 9.3 kmh Calm Calm 1.0 mph SE1.6 kmh SE
Wind Gusts 6.9 mph11.1 kmh -- 2.0 mph3.2 kmh
Humidity 95% 73% 87%
Pressure 30.50 in1032.8 mb 30.41 in1029.8 mb -
Precipitation 0.01 in0.3 mm - -
Hour Temp Dew Point Humidity Winds Wind Gusts Pressure Precip Precip Rate Daily Precip Total
12:00 AM 50.0°F10.0°C 48.1°F8.9°C 93% Calm Calm -- 30.46 in1031.5 mb - 0.00 in0.0 mm 0.00 in0.0 mm
12:10 AM 49.9°F9.9°C 48.0°F8.9°C 93% Calm Calm -- 30.46 in1031.5 mb - 0.00 in0.0 mm 0.00 in0.0 mm
12:20 AM 49.7°F9.8°C 47.8°F8.8°C 93% 1.1 mph WSW1.8 kmh WSW 3.5 mph5.6 kmh 30.46 in1031.5 mb - 0.00 in0.0 mm 0.00 in0.0 mm
12:30 AM 49.5°F9.7°C 47.6°F8.7°C 93% Calm Calm -- 30.46 in1031.5 mb - 0.00 in0.0 mm 0.00 in0.0 mm
12:40 AM 49.4°F9.7°C 47.5°F8.6°C 93% Calm Calm -- 30.46 in1031.5 mb - 0.00 in0.0 mm 0.00 in0.0 mm
12:50 AM 49.2°F9.6°C 47.3°F8.5°C 93% Calm Calm -- 30.46 in1031.5 mb - 0.00 in0.0 mm 0.00 in0.0 mm
01:00 AM 49.1°F9.5°C 47.2°F8.4°C 93% Calm Calm -- 30.46 in1031.5 mb - 0.00 in0.0 mm 0.00 in0.0 mm
01:10 AM 49.0°F9.4°C 47.3°F8.5°C 94% Calm Calm -- 30.46 in1031.5 mb - 0.00 in0.0 mm 0.00 in0.0 mm
01:20 AM 48.9°F9.4°C 47.2°F8.4°C 94% Calm Calm -- 30.46 in1031.5 mb - 0.00 in0.0 mm 0.00 in0.0 mm
01:30 AM 48.8°F9.3°C 47.2°F8.4°C 94% Calm Calm -- 30.46 in1031.5 mb - 0.00 in0.0 mm 0.00 in0.0 mm
01:40 AM 48.6°F9.2°C 47.0°F8.3°C 94% Calm Calm -- 30.46 in1031.5 mb - 0.00 in0.0 mm 0.00 in0.0 mm
01:50 AM 48.2°F9.0°C 46.6°F8.1°C 94% Calm Calm -- 30.46 in1031.5 mb - 0.00 in0.0 mm 0.00 in0.0 mm
02:00 AM 47.8°F8.8°C 46.2°F7.9°C 94% 1.1 mph WSW1.8 kmh WSW 3.5 mph5.6 kmh 30.46 in1031.5 mb - 0.00 in0.0 mm 0.00 in0.0 mm
02:10 AM 47.5°F8.6°C 45.9°F7.7°C 94% 1.1 mph WSW1.8 kmh WSW 3.5 mph5.6 kmh 30.45 in1031.2 mb - 0.00 in0.0 mm 0.00 in0.0 mm
02:20 AM 47.4°F8.6°C 45.7°F7.6°C 94% Calm Calm -- 30.45 in1031.2 mb - 0.00 in0.0 mm 0.00 in0.0 mm
02:30 AM 47.0°F8.3°C 45.4°F7.4°C 94% Calm Calm -- 30.45 in1031.2 mb - 0.00 in0.0 mm 0.00 in0.0 mm
02:40 AM 46.6°F8.1°C 44.9°F7.2°C 94% Calm Calm 2.3 mph3.7 kmh 30.45 in1031.2 mb - 0.00 in0.0 mm 0.00 in0.0 mm
02:50 AM 46.3°F7.9°C 44.7°F7.1°C 94% 1.1 mph WSW1.8 kmh WSW 2.3 mph3.7 kmh 30.45 in1031.2 mb - 0.00 in0.0 mm 0.00 in0.0 mm
03:00 AM 46.2°F7.9°C 44.6°F7.0°C 94% 1.1 mph WSW1.8 kmh WSW 2.3 mph3.7 kmh 30.45 in1031.2 mb - 0.00 in0.0 mm 0.00 in0.0 mm
03:10 AM 46.1°F7.8°C 44.5°F6.9°C 94% Calm Calm -- 30.45 in1031.2 mb - 0.00 in0.0 mm 0.00 in0.0 mm
03:20 AM 46.2°F7.9°C 44.6°F7.0°C 94% Calm Calm -- 30.45 in1031.2 mb - 0.00 in0.0 mm 0.00 in0.0 mm
03:30 AM 46.4°F8.0°C 44.8°F7.1°C 94% Calm Calm -- 30.45 in1031.2 mb - 0.00 in0.0 mm 0.00 in0.0 mm
03:40 AM 46.5°F8.1°C 44.9°F7.2°C 94% Calm Calm -- 30.46 in1031.5 mb - 0.00 in0.0 mm 0.00 in0.0 mm
03:50 AM 46.6°F8.1°C 45.0°F7.2°C 94% Calm Calm -- 30.45 in1031.2 mb - 0.00 in0.0 mm 0.00 in0.0 mm
04:00 AM 46.5°F8.1°C 44.9°F7.2°C 94% Calm Calm -- 30.45 in1031.2 mb - 0.00 in0.0 mm 0.00 in0.0 mm
04:10 AM 46.4°F8.0°C 44.8°F7.1°C 94% Calm Calm -- 30.45 in1031.2 mb - 0.00 in0.0 mm 0.00 in0.0 mm
04:20 AM 46.2°F7.9°C 44.6°F7.0°C 94% Calm Calm -- 30.45 in1031.2 mb - 0.00 in0.0 mm 0.00 in0.0 mm
04:30 AM 46.3°F7.9°C 44.9°F7.2°C 95% Calm Calm -- 30.45 in1031.2 mb - 0.00 in0.0 mm 0.00 in0.0 mm
04:40 AM 46.5°F8.1°C 45.1°F7.3°C 95% Calm Calm -- 30.45 in1031.2 mb - 0.00 in0.0 mm 0.00 in0.0 mm
04:50 AM 46.6°F8.1°C 45.0°F7.2°C 94% Calm Calm -- 30.45 in1031.2 mb - 0.00 in0.0 mm 0.00 in0.0 mm
05:00 AM 46.6°F8.1°C 45.0°F7.2°C 94% 1.1 mph WSW1.8 kmh WSW 1.1 mph1.8 kmh 30.45 in1031.2 mb - 0.00 in0.0 mm 0.00 in0.0 mm
05:10 AM 46.6°F8.1°C 45.0°F7.2°C 94% 1.1 mph NE1.8 kmh NE 2.3 mph3.7 kmh 30.44 in1030.8 mb - 0.00 in0.0 mm 0.00 in0.0 mm
05:20 AM 46.8°F8.2°C 45.4°F7.4°C 95% 1.1 mph NE1.8 kmh NE 3.5 mph5.6 kmh 30.44 in1030.8 mb - 0.00 in0.0 mm 0.00 in0.0 mm
05:30 AM 47.0°F8.3°C 45.6°F7.6°C 95% Calm Calm -- 30.44 in1030.8 mb - 0.00 in0.0 mm 0.00 in0.0 mm
05:40 AM 46.9°F8.3°C 45.5°F7.5°C 95% Calm Calm -- 30.44 in1030.8 mb - 0.00 in0.0 mm 0.00 in0.0 mm
05:50 AM 46.9°F8.3°C 45.5°F7.5°C 95% Calm Calm -- 30.44 in1030.8 mb - 0.00 in0.0 mm 0.00 in0.0 mm
06:00 AM 46.9°F8.3°C 45.5°F7.5°C 95% Calm Calm -- 30.44 in1030.8 mb - 0.00 in0.0 mm 0.00 in0.0 mm
06:10 AM 46.7°F8.2°C 45.4°F7.4°C 95% Calm Calm -- 30.44 in1030.8 mb - 0.00 in0.0 mm 0.00 in0.0 mm
06:20 AM 46.7°F8.2°C 45.3°F7.4°C 95% Calm Calm -- 30.44 in1030.8 mb - 0.00 in0.0 mm 0.00 in0.0 mm
06:30 AM 46.5°F8.1°C 45.2°F7.3°C 95% Calm Calm -- 30.44 in1030.8 mb - 0.00 in0.0 mm 0.00 in0.0 mm
06:40 AM 46.6°F8.1°C 45.2°F7.3°C 95% Calm Calm -- 30.44 in1030.8 mb - 0.00 in0.0 mm 0.00 in0.0 mm
06:50 AM 46.6°F8.1°C 45.2°F7.3°C 95% Calm Calm -- 30.44 in1030.8 mb - 0.00 in0.0 mm 0.00 in0.0 mm
07:00 AM 46.5°F8.1°C 45.2°F7.3°C 95% Calm Calm -- 30.44 in1030.8 mb - 0.00 in0.0 mm 0.00 in0.0 mm
07:10 AM 46.5°F8.1°C 45.1°F7.3°C 95% Calm Calm -- 30.44 in1030.8 mb - 0.00 in0.0 mm 0.00 in0.0 mm
07:20 AM 46.4°F8.0°C 45.0°F7.2°C 95% Calm Calm -- 30.45 in1031.2 mb - 0.00 in0.0 mm 0.00 in0.0 mm
07:30 AM 46.4°F8.0°C 45.0°F7.2°C 95% Calm Calm -- 30.45 in1031.2 mb - 0.00 in0.0 mm 0.00 in0.0 mm
07:40 AM 46.3°F7.9°C 44.9°F7.2°C 95% Calm Calm -- 30.45 in1031.2 mb - 0.00 in0.0 mm 0.00 in0.0 mm
07:50 AM 46.3°F7.9°C 44.9°F7.2°C 95% 2.3 mph NE3.7 kmh NE 3.5 mph5.6 kmh 30.45 in1031.2 mb - 0.00 in0.0 mm 0.00 in0.0 mm
08:00 AM 46.1°F7.8°C 44.7°F7.1°C 95% 1.1 mph NE1.8 kmh NE 3.5 mph5.6 kmh 30.45 in1031.2 mb - 0.00 in0.0 mm 0.00 in0.0 mm
08:10 AM 46.0°F7.8°C 44.4°F6.9°C 94% 3.5 mph NE5.6 kmh NE 3.5 mph5.6 kmh 30.46 in1031.5 mb - 0.00 in0.0 mm 0.00 in0.0 mm
08:20 AM 46.0°F7.8°C 44.6°F7.0°C 95% 2.3 mph NE3.7 kmh NE 2.3 mph3.7 kmh 30.46 in1031.5 mb - 0.00 in0.0 mm 0.00 in0.0 mm
08:30 AM 46.0°F7.8°C 44.4°F6.9°C 94% 1.1 mph NE1.8 kmh NE 3.5 mph5.6 kmh 30.46 in1031.5 mb - 0.00 in0.0 mm 0.00 in0.0 mm
08:40 AM 46.0°F7.8°C 44.4°F6.9°C 94% 2.3 mph NE3.7 kmh NE 3.5 mph5.6 kmh 30.46 in1031.5 mb - 0.00 in0.0 mm 0.00 in0.0 mm
08:50 AM 46.0°F7.8°C 44.4°F6.9°C 94% 3.5 mph NE5.6 kmh NE 3.5 mph5.6 kmh 30.46 in1031.5 mb - 0.00 in0.0 mm 0.00 in0.0 mm
09:00 AM 46.0°F7.8°C 44.4°F6.9°C 94% 4.6 mph NE7.4 kmh NE 4.6 mph7.4 kmh 30.47 in1031.8 mb - 0.00 in0.0 mm 0.00 in0.0 mm
09:10 AM 46.0°F7.8°C 44.4°F6.9°C 94% 4.6 mph NE7.4 kmh NE 4.6 mph7.4 kmh 30.47 in1031.8 mb - 0.00 in0.0 mm 0.00 in0.0 mm
09:20 AM 46.1°F7.8°C 44.5°F6.9°C 94% 3.5 mph NE5.6 kmh NE 4.6 mph7.4 kmh 30.48 in1032.2 mb - 0.00 in0.0 mm 0.00 in0.0 mm
09:30 AM 46.3°F7.9°C 44.7°F7.1°C 94% 4.6 mph NE7.4 kmh NE 4.6 mph7.4 kmh 30.48 in1032.2 mb - 0.00 in0.0 mm 0.00 in0.0 mm
09:40 AM 46.5°F8.1°C 44.8°F7.1°C 94% 2.3 mph NE3.7 kmh NE 3.5 mph5.6 kmh 30.48 in1032.2 mb - 0.00 in0.0 mm 0.00 in0.0 mm
09:50 AM 46.5°F8.1°C 44.9°F7.2°C 94% 2.3 mph NE3.7 kmh NE 3.5 mph5.6 kmh 30.48 in1032.2 mb - 0.00 in0.0 mm 0.00 in0.0 mm
10:00 AM 46.6°F8.1°C 45.0°F7.2°C 94% 3.5 mph NE5.6 kmh NE 3.5 mph5.6 kmh 30.48 in1032.2 mb - 0.00 in0.0 mm 0.00 in0.0 mm
10:10 AM 46.7°F8.2°C 45.0°F7.2°C 94% 5.8 mph NE9.3 kmh NE 5.8 mph9.3 kmh 30.49 in1032.5 mb - 0.00 in0.0 mm 0.00 in0.0 mm
10:20 AM 46.8°F8.2°C 44.9°F7.2°C 93% 1.1 mph NE1.8 kmh NE 2.3 mph3.7 kmh 30.49 in1032.5 mb - 0.00 in0.0 mm 0.00 in0.0 mm
10:30 AM 47.1°F8.4°C 45.2°F7.3°C 93% 1.1 mph NE1.8 kmh NE 2.3 mph3.7 kmh 30.49 in1032.5 mb - 0.00 in0.0 mm 0.00 in0.0 mm
10:40 AM 47.4°F8.6°C 45.5°F7.5°C 93% Calm Calm 2.3 mph3.7 kmh 30.49 in1032.5 mb - 0.00 in0.0 mm 0.00 in0.0 mm
10:50 AM 47.9°F8.8°C 45.7°F7.6°C 92% Calm Calm 2.3 mph3.7 kmh 30.49 in1032.5 mb - 0.00 in0.0 mm 0.00 in0.0 mm
11:00 AM 48.4°F9.1°C 45.9°F7.7°C 91% 2.3 mph NE3.7 kmh NE 3.5 mph5.6 kmh 30.49 in1032.5 mb - 0.00 in0.0 mm 0.00 in0.0 mm
11:10 AM 48.9°F9.4°C 46.1°F7.8°C 90% 3.5 mph NE5.6 kmh NE 3.5 mph5.6 kmh 30.50 in1032.8 mb - 0.00 in0.0 mm 0.00 in0.0 mm
11:20 AM 49.2°F9.6°C 45.8°F7.7°C 88% 1.1 mph E1.8 kmh E 5.8 mph9.3 kmh 30.50 in1032.8 mb - 0.00 in0.0 mm 0.00 in0.0 mm
11:30 AM 49.5°F9.7°C 45.8°F7.7°C 87% 5.8 mph E9.3 kmh E 6.9 mph11.1 kmh 30.50 in1032.8 mb - 0.00 in0.0 mm 0.00 in0.0 mm
11:40 AM 49.7°F9.8°C 45.7°F7.6°C 86% 4.6 mph E7.4 kmh E 5.8 mph9.3 kmh 30.50 in1032.8 mb - 0.00 in0.0 mm 0.00 in0.0 mm
11:50 AM 50.0°F10.0°C 45.7°F7.6°C 85% 1.1 mph E1.8 kmh E 4.6 mph7.4 kmh 30.50 in1032.8 mb - 0.00 in0.0 mm 0.00 in0.0 mm
12:00 PM 50.3°F10.2°C 45.6°F7.6°C 84% 1.1 mph SE1.8 kmh SE 2.3 mph3.7 kmh 30.49 in1032.5 mb - 0.00 in0.0 mm 0.00 in0.0 mm
12:10 PM 50.6°F10.3°C 45.7°F7.6°C 83% Calm Calm 2.3 mph3.7 kmh 30.50 in1032.8 mb - 0.00 in0.0 mm 0.00 in0.0 mm
12:20 PM 50.8°F10.4°C 45.5°F7.5°C 82% Calm Calm 1.1 mph1.8 kmh 30.49 in1032.5 mb - 0.00 in0.0 mm 0.00 in0.0 mm
12:30 PM 51.4°F10.8°C 46.1°F7.8°C 82% 1.1 mph E1.8 kmh E 3.5 mph5.6 kmh 30.49 in1032.5 mb - 0.00 in0.0 mm 0.00 in0.0 mm
12:40 PM 51.8°F11.0°C 45.8°F7.7°C 80% 1.1 mph SE1.8 kmh SE 4.6 mph7.4 kmh 30.49 in1032.5 mb - 0.00 in0.0 mm 0.00 in0.0 mm
12:50 PM 52.0°F11.1°C 46.0°F7.8°C 80% 1.1 mph E1.8 kmh E 3.5 mph5.6 kmh 30.48 in1032.2 mb - 0.00 in0.0 mm 0.00 in0.0 mm
01:00 PM 52.1°F11.2°C 46.2°F7.9°C 80% Calm Calm -- 30.48 in1032.2 mb - 0.00 in0.0 mm 0.00 in0.0 mm
01:10 PM 52.2°F11.2°C 45.5°F7.5°C 78% 4.6 mph N7.4 kmh N 5.8 mph9.3 kmh 30.48 in1032.2 mb - 0.00 in0.0 mm 0.00 in0.0 mm
01:20 PM 52.4°F11.3°C 45.7°F7.6°C 78% Calm Calm -- 30.47 in1031.8 mb - 0.00 in0.0 mm 0.00 in0.0 mm
01:40 PM 52.6°F11.4°C 45.2°F7.3°C 76% Calm Calm -- 30.47 in1031.8 mb - 0.00 in0.0 mm 0.00 in0.0 mm
01:50 PM 52.6°F11.4°C 45.2°F7.3°C 76% 4.6 mph E7.4 kmh E 4.6 mph7.4 kmh 30.47 in1031.8 mb - 0.00 in0.0 mm 0.00 in0.0 mm
02:00 PM 52.7°F11.5°C 45.3°F7.4°C 76% 2.3 mph E3.7 kmh E 4.6 mph7.4 kmh 30.46 in1031.5 mb - 0.00 in0.0 mm 0.00 in0.0 mm
02:10 PM 52.9°F11.6°C 45.2°F7.3°C 75% Calm Calm -- 30.45 in1031.2 mb - 0.01 in0.3 mm 0.01 in0.3 mm
02:20 PM 53.2°F11.8°C 45.5°F7.5°C 75% 2.3 mph ENE3.7 kmh ENE 3.5 mph5.6 kmh 30.45 in1031.2 mb - 0.00 in0.0 mm 0.01 in0.3 mm
02:30 PM 53.6°F12.0°C 45.9°F7.7°C 75% 4.6 mph ENE7.4 kmh ENE 5.8 mph9.3 kmh 30.45 in1031.2 mb - 0.00 in0.0 mm 0.01 in0.3 mm
02:40 PM 53.2°F11.8°C 44.8°F7.1°C 73% Calm Calm 2.3 mph3.7 kmh 30.44 in1030.8 mb - 0.00 in0.0 mm 0.01 in0.3 mm
02:50 PM 53.1°F11.7°C 45.0°F7.2°C 74% 2.3 mph NNW3.7 kmh NNW 4.6 mph7.4 kmh 30.43 in1030.5 mb - 0.00 in0.0 mm 0.01 in0.3 mm
03:00 PM 53.1°F11.7°C 45.0°F7.2°C 74% 4.6 mph NE7.4 kmh NE 4.6 mph7.4 kmh 30.43 in1030.5 mb - 0.00 in0.0 mm 0.01 in0.3 mm
03:10 PM 53.0°F11.7°C 44.9°F7.2°C 74% Calm Calm 2.3 mph3.7 kmh 30.43 in1030.5 mb - 0.00 in0.0 mm 0.01 in0.3 mm
03:20 PM 53.2°F11.8°C 44.8°F7.1°C 73% 1.1 mph NW1.8 kmh NW 2.3 mph3.7 kmh 30.42 in1030.1 mb - 0.00 in0.0 mm 0.01 in0.3 mm
03:30 PM 53.3°F11.8°C 45.2°F7.3°C 74% 2.3 mph E3.7 kmh E 3.5 mph5.6 kmh 30.42 in1030.1 mb - 0.00 in0.0 mm 0.01 in0.3 mm
03:40 PM 53.4°F11.9°C 45.0°F7.2°C 73% Calm Calm -- 30.41 in1029.8 mb - 0.00 in0.0 mm 0.01 in0.3 mm
03:50 PM 53.6°F12.0°C 45.2°F7.3°C 73% 1.1 mph E1.8 kmh E 1.1 mph1.8 kmh 30.41 in1029.8 mb - 0.00 in0.0 mm 0.01 in0.3 mm
04:00 PM 53.7°F12.1°C 45.2°F7.3°C 73% 3.5 mph NNE5.6 kmh NNE 3.5 mph5.6 kmh 30.41 in1029.8 mb - 0.00 in0.0 mm 0.01 in0.3 mm
04:10 PM 53.6°F12.0°C 45.2°F7.3°C 73% 2.3 mph N3.7 kmh N 3.5 mph5.6 kmh 30.41 in1029.8 mb - 0.00 in0.0 mm 0.01 in0.3 mm
04:20 PM 53.5°F11.9°C 45.4°F7.4°C 74% 1.1 mph N1.8 kmh N 3.5 mph5.6 kmh 30.41 in1029.8 mb - 0.00 in0.0 mm 0.01 in0.3 mm
04:30 PM 53.6°F12.0°C 45.5°F7.5°C 74% 3.5 mph N5.6 kmh N 4.6 mph7.4 kmh 30.41 in1029.8 mb - 0.00 in0.0 mm 0.01 in0.3 mm
04:40 PM 53.6°F12.0°C 45.5°F7.5°C 74% 2.3 mph N3.7 kmh N 3.5 mph5.6 kmh 30.41 in1029.8 mb - 0.00 in0.0 mm 0.01 in0.3 mm
04:50 PM 53.6°F12.0°C 45.5°F7.5°C 74% Calm Calm -- 30.41 in1029.8 mb - 0.00 in0.0 mm 0.01 in0.3 mm
05:00 PM 53.5°F11.9°C 45.1°F7.3°C 73% Calm Calm -- 30.41 in1029.8 mb - 0.00 in0.0 mm 0.01 in0.3 mm
05:10 PM 53.4°F11.9°C 45.3°F7.4°C 74% 1.1 mph N1.8 kmh N 3.5 mph5.6 kmh 30.41 in1029.8 mb - 0.00 in0.0 mm 0.01 in0.3 mm
05:20 PM 53.3°F11.8°C 45.6°F7.6°C 75% Calm Calm 3.5 mph5.6 kmh 30.41 in1029.8 mb - 0.00 in0.0 mm 0.01 in0.3 mm
05:30 PM 53.2°F11.8°C 45.8°F7.7°C 76% Calm Calm -- 30.41 in1029.8 mb - 0.00 in0.0 mm 0.01 in0.3 mm
05:40 PM 53.0°F11.7°C 46.0°F7.8°C 77% 1.1 mph SW1.8 kmh SW 2.3 mph3.7 kmh 30.41 in1029.8 mb - 0.00 in0.0 mm 0.01 in0.3 mm
05:50 PM 52.6°F11.4°C 45.6°F7.6°C 77% 1.1 mph SW1.8 kmh SW 3.5 mph5.6 kmh 30.41 in1029.8 mb - 0.00 in0.0 mm 0.01 in0.3 mm
06:00 PM 52.3°F11.3°C 45.6°F7.6°C 78% 3.5 mph SW5.6 kmh SW 5.8 mph9.3 kmh 30.41 in1029.8 mb - 0.00 in0.0 mm 0.01 in0.3 mm
06:10 PM 51.9°F11.1°C 45.6°F7.6°C 79% 4.6 mph SW7.4 kmh SW 5.8 mph9.3 kmh 30.42 in1030.1 mb - 0.00 in0.0 mm 0.01 in0.3 mm
06:20 PM 51.4°F10.8°C 45.1°F7.3°C 79% 4.6 mph SW7.4 kmh SW 5.8 mph9.3 kmh 30.42 in1030.1 mb - 0.00 in0.0 mm 0.01 in0.3 mm
06:30 PM 50.8°F10.4°C 44.9°F7.2°C 80% 3.5 mph WSW5.6 kmh WSW 4.6 mph7.4 kmh 30.42 in1030.1 mb - 0.00 in0.0 mm 0.01 in0.3 mm
06:40 PM 50.2°F10.1°C 44.6°F7.0°C 81% 1.1 mph SW1.8 kmh SW 2.3 mph3.7 kmh 30.43 in1030.5 mb - 0.00 in0.0 mm 0.01 in0.3 mm
06:50 PM 49.7°F9.8°C 44.1°F6.7°C 81% Calm Calm -- 30.43 in1030.5 mb - 0.00 in0.0 mm 0.01 in0.3 mm
07:00 PM 49.2°F9.6°C 44.3°F6.8°C 83% Calm Calm -- 30.43 in1030.5 mb - 0.00 in0.0 mm 0.01 in0.3 mm
07:10 PM 48.8°F9.3°C 44.2°F6.8°C 84% Calm Calm -- 30.43 in1030.5 mb - 0.00 in0.0 mm 0.01 in0.3 mm
07:20 PM 48.5°F9.2°C 44.2°F6.8°C 85% Calm Calm -- 30.43 in1030.5 mb - 0.00 in0.0 mm 0.01 in0.3 mm
07:30 PM 48.4°F9.1°C 44.1°F6.7°C 85% Calm Calm -- 30.43 in1030.5 mb - 0.00 in0.0 mm 0.01 in0.3 mm
07:40 PM 48.4°F9.1°C 44.4°F6.9°C 86% Calm Calm -- 30.43 in1030.5 mb - 0.00 in0.0 mm 0.01 in0.3 mm
07:50 PM 48.2°F9.0°C 44.2°F6.8°C 86% Calm Calm -- 30.43 in1030.5 mb - 0.00 in0.0 mm 0.01 in0.3 mm
08:00 PM 48.0°F8.9°C 44.0°F6.7°C 86% Calm Calm -- 30.43 in1030.5 mb - 0.00 in0.0 mm 0.01 in0.3 mm
08:10 PM 47.9°F8.8°C 43.9°F6.6°C 86% Calm Calm -- 30.44 in1030.8 mb - 0.00 in0.0 mm 0.01 in0.3 mm
08:20 PM 47.8°F8.8°C 43.8°F6.6°C 86% Calm Calm -- 30.43 in1030.5 mb - 0.00 in0.0 mm 0.01 in0.3 mm
08:30 PM 47.6°F8.7°C 43.6°F6.4°C 86% Calm Calm -- 30.43 in1030.5 mb - 0.00 in0.0 mm 0.01 in0.3 mm
08:40 PM 47.5°F8.6°C 43.5°F6.4°C 86% 1.1 mph ENE1.8 kmh ENE 2.3 mph3.7 kmh 30.43 in1030.5 mb - 0.00 in0.0 mm 0.01 in0.3 mm
08:50 PM 47.3°F8.5°C 43.3°F6.3°C 86% Calm Calm -- 30.43 in1030.5 mb - 0.00 in0.0 mm 0.01 in0.3 mm
09:00 PM 47.2°F8.4°C 43.2°F6.2°C 86% Calm Calm 3.5 mph5.6 kmh 30.43 in1030.5 mb - 0.00 in0.0 mm 0.01 in0.3 mm
09:10 PM 47.0°F8.3°C 43.3°F6.3°C 87% 1.1 mph ENE1.8 kmh ENE 2.3 mph3.7 kmh 30.43 in1030.5 mb - 0.00 in0.0 mm 0.01 in0.3 mm
09:20 PM 46.9°F8.3°C 43.2°F6.2°C 87% Calm Calm -- 30.43 in1030.5 mb - 0.00 in0.0 mm 0.01 in0.3 mm
09:30 PM 46.7°F8.2°C 43.0°F6.1°C 87% Calm Calm 3.5 mph5.6 kmh 30.42 in1030.1 mb - 0.00 in0.0 mm 0.01 in0.3 mm
09:40 PM 46.4°F8.0°C 42.7°F5.9°C 87% 1.1 mph NE1.8 kmh NE 2.3 mph3.7 kmh 30.42 in1030.1 mb - 0.00 in0.0 mm 0.01 in0.3 mm
09:50 PM 46.3°F7.9°C 42.6°F5.9°C 87% Calm Calm 1.1 mph1.8 kmh 30.42 in1030.1 mb - 0.00 in0.0 mm 0.01 in0.3 mm
10:00 PM 46.0°F7.8°C 42.4°F5.8°C 87% 2.3 mph NE3.7 kmh NE 2.3 mph3.7 kmh 30.42 in1030.1 mb - 0.00 in0.0 mm 0.01 in0.3 mm
10:10 PM 45.9°F7.7°C 42.2°F5.7°C 87% 1.1 mph NE1.8 kmh NE 1.1 mph1.8 kmh 30.42 in1030.1 mb - 0.00 in0.0 mm 0.01 in0.3 mm
10:20 PM 45.6°F7.6°C 42.0°F5.6°C 87% Calm Calm 1.1 mph1.8 kmh 30.43 in1030.5 mb - 0.00 in0.0 mm 0.01 in0.3 mm
10:30 PM 45.4°F7.4°C 42.1°F5.6°C 88% Calm Calm -- 30.43 in1030.5 mb - 0.00 in0.0 mm 0.01 in0.3 mm
10:40 PM 44.9°F7.2°C 41.6°F5.3°C 88% 1.1 mph NE1.8 kmh NE 2.3 mph3.7 kmh 30.43 in1030.5 mb - 0.00 in0.0 mm 0.01 in0.3 mm
10:50 PM 44.5°F6.9°C 41.2°F5.1°C 88% 1.1 mph NE1.8 kmh NE 2.3 mph3.7 kmh 30.42 in1030.1 mb - 0.00 in0.0 mm 0.01 in0.3 mm
11:00 PM 44.2°F6.8°C 40.9°F4.9°C 88% 2.3 mph NE3.7 kmh NE 3.5 mph5.6 kmh 30.42 in1030.1 mb - 0.00 in0.0 mm 0.01 in0.3 mm
11:10 PM 43.7°F6.5°C 40.4°F4.7°C 88% 4.6 mph NE7.4 kmh NE 5.8 mph9.3 kmh 30.43 in1030.5 mb - 0.00 in0.0 mm 0.01 in0.3 mm
11:20 PM 43.3°F6.3°C 40.3°F4.6°C 89% 3.5 mph NE5.6 kmh NE 3.5 mph5.6 kmh 30.43 in1030.5 mb - 0.00 in0.0 mm 0.01 in0.3 mm
11:30 PM 43.1°F6.2°C 40.1°F4.5°C 89% 2.3 mph NE3.7 kmh NE 3.5 mph5.6 kmh 30.43 in1030.5 mb - 0.00 in0.0 mm 0.01 in0.3 mm
11:40 PM 42.8°F6.0°C 40.1°F4.5°C 90% 4.6 mph NE7.4 kmh NE 4.6 mph7.4 kmh 30.42 in1030.1 mb - 0.00 in0.0 mm 0.01 in0.3 mm
11:50 PM 42.7°F5.9°C 40.0°F4.4°C 90% 4.6 mph NE7.4 kmh NE 5.8 mph9.3 kmh 30.42 in1030.1 mb - 0.00 in0.0 mm 0.01 in0.3 mm